createdAt,value
2022-08-17T00:00:17.290Z,100890.28
2022-08-17T00:03:10.233Z,100894.69
2022-08-17T00:06:03.309Z,100897.41
2022-08-17T00:08:57.430Z,100886.31
2022-08-17T00:11:34.258Z,100881.88
2022-08-17T00:14:11.238Z,100865.72
2022-08-17T00:16:56.097Z,100885.44
2022-08-17T00:19:25.657Z,100835.72
2022-08-17T00:22:32.534Z,100890.41
2022-08-17T00:24:43.473Z,100883.59
2022-08-17T00:27:10.253Z,100845.06
2022-08-17T00:29:36.772Z,100874.59
2022-08-17T00:33:15.123Z,100851.72
2022-08-17T00:34:50.436Z,100871.09
2022-08-17T00:37:17.055Z,100862.81
2022-08-17T00:39:44.168Z,100852.31
2022-08-17T00:42:17.027Z,100871.84
2022-08-17T00:44:44.796Z,100850.44
2022-08-17T00:47:11.527Z,100857.56
2022-08-17T00:49:38.186Z,100850.44
2022-08-17T00:52:15.650Z,100854.66
2022-08-17T00:54:47.296Z,100869.88
2022-08-17T00:57:19.807Z,100839.00
2022-08-17T01:00:03.249Z,100839.34
2022-08-17T01:02:42.639Z,100873.56
2022-08-17T01:05:15.294Z,100859.13
2022-08-17T01:07:43.402Z,100827.66
2022-08-17T01:11:00.253Z,100871.38
2022-08-17T01:13:02.644Z,100862.34
2022-08-17T01:15:33.550Z,100858.63
2022-08-17T01:18:00.262Z,100842.75
2022-08-17T01:20:27.196Z,100857.28
2022-08-17T01:22:53.851Z,100838.63
2022-08-17T01:25:21.507Z,100841.44
2022-08-17T01:27:48.919Z,100869.69
2022-08-17T01:30:58.541Z,100855.25
2022-08-17T01:33:04.371Z,100825.16
2022-08-17T01:35:31.380Z,100826.88
2022-08-17T01:37:58.091Z,100832.94
2022-08-17T01:40:41.987Z,100854.47
2022-08-17T01:43:21.548Z,100829.72
2022-08-17T01:46:02.512Z,100831.34
2022-08-17T01:48:38.789Z,100841.44
2022-08-17T01:51:07.302Z,100830.44
2022-08-17T01:53:41.587Z,100807.59
2022-08-17T01:56:11.750Z,100830.78
2022-08-17T01:58:39.592Z,100855.78
2022-08-17T02:01:07.672Z,100848.34
2022-08-17T02:03:35.549Z,100857.72
2022-08-17T02:06:03.715Z,100848.25
2022-08-17T02:08:38.640Z,100860.69
2022-08-17T02:11:11.705Z,100861.75
2022-08-17T02:13:39.044Z,100854.19
2022-08-17T02:16:05.955Z,100834.72
2022-08-17T02:18:33.062Z,100864.78
2022-08-17T02:21:00.411Z,100871.88
2022-08-17T02:23:30.505Z,100830.38
2022-08-17T02:25:59.820Z,100889.63
2022-08-17T02:28:28.550Z,100901.25
2022-08-17T02:31:03.858Z,100891.19
2022-08-17T02:33:42.054Z,100916.09
2022-08-17T02:36:11.804Z,100903.88
2022-08-17T02:38:39.886Z,100888.53
2022-08-17T02:41:06.970Z,100894.38
2022-08-17T02:43:34.013Z,100892.63
2022-08-17T02:46:00.816Z,100886.69
2022-08-17T02:48:30.398Z,100867.16
2022-08-17T02:50:59.010Z,100876.69
2022-08-17T02:53:25.942Z,100896.59
2022-08-17T02:55:53.187Z,100854.88
2022-08-17T02:58:32.079Z,100899.47
2022-08-17T03:01:06.545Z,100856.81
2022-08-17T03:03:34.449Z,100895.25
2022-08-17T03:06:01.418Z,100884.38
2022-08-17T03:08:28.847Z,100898.28
2022-08-17T03:10:55.637Z,100869.31
2022-08-17T03:13:22.690Z,100909.69
2022-08-17T03:15:49.803Z,100925.94
2022-08-17T03:18:25.574Z,100896.75
2022-08-17T03:21:00.266Z,100907.84
2022-08-17T03:23:29.712Z,100926.66
2022-08-17T03:25:58.205Z,100911.22
2022-08-17T03:28:25.737Z,100928.22
2022-08-17T03:30:52.951Z,100912.34
2022-08-17T03:33:20.163Z,100922.72
2022-08-17T03:35:47.395Z,100927.00
2022-08-17T03:38:15.361Z,100923.47
2022-08-17T03:40:57.856Z,100915.75
2022-08-17T03:43:29.346Z,100891.00
2022-08-17T03:46:27.591Z,100922.34
2022-08-17T03:49:18.702Z,100929.16
2022-08-17T03:52:04.126Z,100879.50
2022-08-17T03:54:49.506Z,100912.69
2022-08-17T03:57:16.748Z,100889.38
2022-08-17T03:59:45.022Z,100917.44
2022-08-17T04:02:22.316Z,100909.59
2022-08-17T04:04:52.414Z,100911.19
2022-08-17T04:07:21.308Z,100905.78
2022-08-17T04:09:48.404Z,100910.09
2022-08-17T04:12:17.159Z,100887.78
2022-08-17T04:14:52.945Z,100883.44
2022-08-17T04:17:23.225Z,100915.75
2022-08-17T04:19:50.058Z,100889.88
2022-08-17T04:22:32.817Z,100891.59
2022-08-17T04:25:21.185Z,100911.34
2022-08-17T04:27:49.005Z,100896.69
2022-08-17T04:30:15.817Z,100894.72
2022-08-17T04:33:05.765Z,100910.81
2022-08-17T04:35:43.829Z,100913.31
2022-08-17T04:38:13.540Z,100897.47
2022-08-17T04:40:58.845Z,100870.94
2022-08-17T04:43:27.903Z,100900.72
2022-08-17T04:46:01.950Z,100883.53
2022-08-17T04:48:37.010Z,100871.56
2022-08-17T04:51:33.097Z,100895.34
2022-08-17T04:54:04.051Z,100900.47
2022-08-17T04:56:31.973Z,100876.28
2022-08-17T04:59:06.669Z,100890.09
2022-08-17T05:01:35.489Z,100896.81
2022-08-17T05:04:33.446Z,100863.22
2022-08-17T05:06:55.009Z,100846.59
2022-08-17T05:09:21.964Z,100832.09
2022-08-17T05:11:49.524Z,100854.25
2022-08-17T05:14:16.126Z,100861.81
2022-08-17T05:16:42.904Z,100831.06
2022-08-17T05:19:09.547Z,100857.34
2022-08-17T05:21:36.294Z,100866.75
2022-08-17T05:24:05.998Z,100864.88
2022-08-17T05:26:46.947Z,100891.28
2022-08-17T05:29:16.053Z,100894.75
2022-08-17T05:31:42.678Z,100871.66
2022-08-17T05:34:12.009Z,100904.66
2022-08-17T05:36:42.841Z,100875.91
2022-08-17T05:39:16.803Z,100913.25
2022-08-17T05:41:45.108Z,100899.59
2022-08-17T05:44:16.431Z,100869.22
2022-08-17T05:46:49.335Z,100916.72
2022-08-17T05:49:21.934Z,100895.78
2022-08-17T05:51:57.853Z,100932.88
2022-08-17T05:54:50.875Z,100913.69
2022-08-17T05:57:48.163Z,100939.09
2022-08-17T06:00:42.033Z,100943.03
2022-08-17T06:03:11.856Z,100942.66
2022-08-17T06:06:05.392Z,100936.34
2022-08-17T06:08:38.464Z,100934.03
2022-08-17T06:11:20.463Z,100937.31
2022-08-17T06:14:20.146Z,100941.25
2022-08-17T06:16:50.030Z,100957.44
2022-08-17T06:19:34.302Z,100928.16
2022-08-17T06:22:02.903Z,100925.03
2022-08-17T06:24:39.478Z,100952.41
2022-08-17T06:27:25.522Z,100911.31
2022-08-17T06:30:09.153Z,100937.41
2022-08-17T06:32:42.648Z,100919.88
2022-08-17T06:35:12.807Z,100968.50
2022-08-17T06:37:55.567Z,100964.66
2022-08-17T06:40:49.141Z,100977.56
2022-08-17T06:43:40.420Z,100991.22
2022-08-17T06:46:13.144Z,100992.78
2022-08-17T06:48:46.719Z,100977.44
2022-08-17T06:51:43.377Z,100995.59
2022-08-17T06:54:38.202Z,101001.31
2022-08-17T06:57:21.120Z,101001.88
2022-08-17T07:00:18.639Z,101007.78
2022-08-17T07:02:56.765Z,100996.88
2022-08-17T07:05:32.136Z,100959.91
2022-08-17T07:08:29.144Z,100996.03
2022-08-17T07:11:01.255Z,100965.38
2022-08-17T07:13:51.071Z,100998.44
2022-08-17T07:16:47.941Z,101001.38
2022-08-17T07:19:17.175Z,100999.16
2022-08-17T07:21:57.749Z,101008.63
2022-08-17T07:24:33.593Z,101008.34
2022-08-17T07:27:37.151Z,101015.06
2022-08-17T07:30:11.072Z,101017.38
2022-08-17T07:32:50.747Z,101023.25
2022-08-17T07:35:17.241Z,101021.00
2022-08-17T07:37:53.104Z,101025.56
2022-08-17T07:40:27.019Z,101033.88
2022-08-17T07:43:18.790Z,101038.81
2022-08-17T07:46:30.629Z,101050.84
2022-08-17T07:49:17.229Z,101044.88
2022-08-17T07:51:43.922Z,101025.75
2022-08-17T07:54:22.786Z,101054.50
2022-08-17T07:56:52.969Z,101033.97
2022-08-17T07:59:24.395Z,101050.16
2022-08-17T08:01:58.140Z,101047.16
2022-08-17T08:05:01.627Z,101039.22
2022-08-17T08:07:56.674Z,101053.53
2022-08-17T08:10:35.596Z,101018.41
2022-08-17T08:13:10.737Z,101029.25
2022-08-17T08:15:53.626Z,101044.41
2022-08-17T08:18:55.361Z,101049.66
2022-08-17T08:21:49.070Z,101044.53
2022-08-17T08:24:40.868Z,101041.03
2022-08-17T08:27:27.669Z,101043.41
2022-08-17T08:30:08.500Z,101045.13
2022-08-17T08:32:51.639Z,101047.84
2022-08-17T08:35:44.404Z,101047.84
2022-08-17T08:38:26.920Z,101048.69
2022-08-17T08:41:01.110Z,101018.66
2022-08-17T08:44:03.651Z,101058.38
2022-08-17T08:47:14.410Z,101061.69
2022-08-17T08:50:07.446Z,101060.25
2022-08-17T08:52:44.782Z,101055.38
2022-08-17T08:55:34.558Z,101044.56
2022-08-17T08:58:31.538Z,101024.69
2022-08-17T09:01:00.415Z,101046.78
2022-08-17T09:03:53.053Z,101062.91
2022-08-17T09:06:39.411Z,101068.97
2022-08-17T09:09:29.336Z,101061.63
2022-08-17T09:13:09.607Z,101074.63
2022-08-17T09:15:48.233Z,101068.03
2022-08-17T09:19:00.480Z,101053.09
2022-08-17T09:21:13.782Z,101061.19
2022-08-17T09:23:59.381Z,101058.13
2022-08-17T09:26:46.600Z,101051.88
2022-08-17T09:29:17.104Z,101079.28
2022-08-17T09:31:55.659Z,101043.72
2022-08-17T09:34:35.092Z,101058.63
2022-08-17T09:37:19.186Z,101089.09
2022-08-17T09:39:55.688Z,101052.72
2022-08-17T09:42:52.506Z,101074.81
2022-08-17T09:45:35.114Z,101075.88
2022-08-17T09:48:14.843Z,101084.72
2022-08-17T09:51:04.633Z,101086.41
2022-08-17T09:53:36.170Z,101051.56
2022-08-17T09:56:32.952Z,101068.31
2022-08-17T09:59:38.857Z,101082.00
2022-08-17T10:02:46.258Z,101093.97
2022-08-17T10:05:18.106Z,101098.94
2022-08-17T10:07:56.118Z,101095.66
2022-08-17T10:10:36.309Z,101095.06
2022-08-17T10:13:10.521Z,101098.72
2022-08-17T10:15:58.738Z,101093.59
2022-08-17T10:18:44.454Z,101084.41
2022-08-17T10:21:32.861Z,101096.78
2022-08-17T10:24:30.357Z,101095.78
2022-08-17T10:27:00.779Z,101091.16
2022-08-17T10:29:48.645Z,101071.59
2022-08-17T10:32:27.869Z,101093.09
2022-08-17T10:35:16.595Z,101108.09
2022-08-17T10:37:56.387Z,101087.00
2022-08-17T10:40:45.419Z,101097.41
2022-08-17T10:43:36.705Z,101079.34
2022-08-17T10:46:30.394Z,101095.72
2022-08-17T10:49:16.707Z,101095.34
2022-08-17T10:51:47.335Z,101092.34
2022-08-17T10:54:47.358Z,101084.91
2022-08-17T10:57:29.250Z,101085.38
2022-08-17T10:59:57.567Z,101040.41
2022-08-17T11:02:50.013Z,101082.59
2022-08-17T11:05:19.915Z,101063.31
2022-08-17T11:08:05.415Z,101074.69
2022-08-17T11:10:53.658Z,101071.97
2022-08-17T11:13:45.175Z,101068.75
2022-08-17T11:16:39.627Z,101073.72
2022-08-17T11:20:01.580Z,101066.81
2022-08-17T11:22:59.206Z,101066.22
2022-08-17T11:25:54.777Z,101060.66
2022-08-17T11:28:34.557Z,101026.63
2022-08-17T11:31:37.915Z,101023.66
2022-08-17T11:34:26.445Z,101033.97
2022-08-17T11:37:05.374Z,101052.41
2022-08-17T11:40:10.619Z,101060.81
2022-08-17T11:43:25.431Z,101057.94
2022-08-17T11:46:46.041Z,101047.16
2022-08-17T11:49:58.675Z,101046.91
2022-08-17T11:52:47.031Z,101041.47
2022-08-17T11:55:40.681Z,101039.44
2022-08-17T11:58:29.520Z,101049.47
2022-08-17T12:01:29.385Z,101031.66
2022-08-17T12:04:25.286Z,101042.06
2022-08-17T12:07:00.838Z,101040.38
2022-08-17T12:09:34.469Z,101030.56
2022-08-17T12:12:14.563Z,101041.63
2022-08-17T12:15:09.546Z,101042.72
2022-08-17T12:17:40.815Z,101039.19
2022-08-17T12:20:26.288Z,101033.94
2022-08-17T12:23:16.610Z,101039.91
2022-08-17T12:25:56.654Z,101040.47
2022-08-17T12:28:32.867Z,101010.63
2022-08-17T12:31:59.303Z,101041.41
2022-08-17T12:34:42.464Z,101024.03
2022-08-17T12:37:19.215Z,100998.72
2022-08-17T12:40:08.560Z,100993.66
2022-08-17T12:42:39.239Z,101019.81
2022-08-17T12:45:20.442Z,101011.25
2022-08-17T12:47:46.998Z,101013.22
2022-08-17T12:50:29.813Z,101002.78
2022-08-17T12:53:01.725Z,101031.50
2022-08-17T12:55:32.505Z,101033.34
2022-08-17T12:58:02.377Z,101009.91
2022-08-17T13:00:35.765Z,101007.16
2022-08-17T13:03:05.907Z,101008.16
2022-08-17T13:05:58.515Z,101040.25
2022-08-17T13:08:39.654Z,101036.66
2022-08-17T13:11:10.107Z,101039.84
2022-08-17T13:13:39.618Z,101032.16
2022-08-17T13:17:15.475Z,101032.47
2022-08-17T13:19:49.497Z,101020.47
2022-08-17T13:22:18.326Z,101025.31
2022-08-17T13:24:56.538Z,101029.44
2022-08-17T13:27:26.129Z,101029.91
2022-08-17T13:29:57.739Z,101004.25
2022-08-17T13:32:39.938Z,101033.09
2022-08-17T13:35:39.182Z,101038.25
2022-08-17T13:38:10.268Z,101004.59
2022-08-17T13:40:55.007Z,101033.03
2022-08-17T13:43:44.907Z,101035.78
2022-08-17T13:46:21.205Z,101028.44
2022-08-17T13:49:02.811Z,101021.63
2022-08-17T13:51:43.078Z,101039.97
2022-08-17T13:54:28.580Z,101026.44
2022-08-17T13:57:02.558Z,101070.13
2022-08-17T13:59:52.728Z,101036.34
2022-08-17T14:02:20.421Z,101074.06
2022-08-17T14:04:48.615Z,101058.97
2022-08-17T14:07:16.192Z,101097.13
2022-08-17T14:09:52.116Z,101081.88
2022-08-17T14:12:22.218Z,101048.25
2022-08-17T14:14:49.659Z,101077.56
2022-08-17T14:17:16.592Z,101060.44
2022-08-17T14:19:43.225Z,101076.25
2022-08-17T14:22:18.896Z,101118.59
2022-08-17T14:24:45.937Z,101089.38
2022-08-17T14:27:12.471Z,101101.13
2022-08-17T14:29:41.250Z,101074.97
2022-08-17T14:32:23.926Z,101069.16
2022-08-17T14:34:51.833Z,101108.31
2022-08-17T14:37:20.469Z,101108.09
2022-08-17T14:39:53.042Z,101086.63
2022-08-17T14:43:22.323Z,101116.19
2022-08-17T14:46:39.279Z,101118.22
2022-08-17T14:49:05.878Z,101098.81
2022-08-17T14:51:32.539Z,101109.34
2022-08-17T14:53:59.302Z,101110.41
2022-08-17T14:56:26.366Z,101103.53
2022-08-17T14:58:53.217Z,101085.59
2022-08-17T15:01:21.714Z,101086.66
2022-08-17T15:03:48.771Z,101126.41
2022-08-17T15:06:16.465Z,101112.81
2022-08-17T15:08:44.146Z,101122.44
2022-08-17T15:11:14.398Z,101104.56
2022-08-17T15:13:52.763Z,101129.50
2022-08-17T15:16:41.107Z,101085.19
2022-08-17T15:19:15.188Z,101056.94
2022-08-17T15:22:10.812Z,101062.47
2022-08-17T15:27:37.591Z,101106.56
2022-08-17T15:32:58.602Z,101137.00
2022-08-17T15:35:29.526Z,101171.16
2022-08-17T15:38:18.534Z,101177.25
2022-08-17T15:40:55.897Z,101138.47
2022-08-17T15:43:30.292Z,101138.75
2022-08-17T15:46:24.048Z,101100.97
2022-08-17T15:48:56.418Z,101126.38
2022-08-17T15:51:26.260Z,101138.56
2022-08-17T15:54:19.423Z,101150.44
2022-08-17T15:56:49.582Z,101159.84
2022-08-17T15:59:16.353Z,101159.56
2022-08-17T16:03:01.358Z,101138.84
2022-08-17T16:04:46.572Z,101129.31
2022-08-17T16:07:26.378Z,101133.75
2022-08-17T16:10:09.172Z,101112.88
2022-08-17T16:12:37.330Z,101132.44
2022-08-17T16:15:07.806Z,101098.78
2022-08-17T16:17:39.561Z,101084.50
2022-08-17T16:20:19.918Z,101119.34
2022-08-17T16:23:03.127Z,101085.38
2022-08-17T16:25:52.144Z,101173.56
2022-08-17T16:28:20.133Z,101119.44
2022-08-17T16:30:48.707Z,101151.19
2022-08-17T16:33:16.799Z,101147.59
2022-08-17T16:35:43.649Z,101077.63
2022-08-17T16:38:11.125Z,101137.72
2022-08-17T16:40:42.833Z,101140.38
2022-08-17T16:43:26.514Z,101085.72
2022-08-17T16:45:53.477Z,101072.00
2022-08-17T16:48:20.226Z,101113.16
2022-08-17T16:51:03.277Z,101090.09
2022-08-17T16:53:33.688Z,101153.25
2022-08-17T16:56:07.679Z,101131.84
2022-08-17T16:58:34.401Z,101140.88
2022-08-17T17:01:01.094Z,101162.00
2022-08-17T17:03:32.005Z,101130.84
2022-08-17T17:09:39.828Z,101116.38
2022-08-17T17:12:18.974Z,101165.94
2022-08-17T17:15:02.996Z,101131.63
2022-08-17T17:17:36.245Z,101127.22
2022-08-17T17:20:11.718Z,101132.69
2022-08-17T17:22:55.471Z,101164.06
2022-08-17T17:25:34.804Z,101151.81
2022-08-17T17:28:30.518Z,101166.22
2022-08-17T17:31:07.921Z,101142.19
2022-08-17T17:33:43.605Z,101138.91
2022-08-17T17:36:24.162Z,101172.91
2022-08-17T17:38:54.721Z,101157.22
2022-08-17T17:41:37.155Z,101190.38
2022-08-17T17:44:13.369Z,101143.09
2022-08-17T17:46:50.987Z,101166.28
2022-08-17T17:49:18.525Z,101175.53
2022-08-17T17:52:22.758Z,101207.19
2022-08-17T17:55:21.541Z,101211.53
2022-08-17T17:58:08.921Z,101205.34
2022-08-17T18:00:43.925Z,101176.72
2022-08-17T18:03:50.814Z,101205.41
2022-08-17T18:06:31.647Z,101172.28
2022-08-17T18:09:33.800Z,101180.66
2022-08-17T18:12:13.816Z,101208.47
2022-08-17T18:53:01.753Z,101186.38
2022-08-17T18:57:09.854Z,101283.31
2022-08-17T19:03:34.697Z,101255.09
2022-08-17T19:07:42.856Z,101209.63
2022-08-17T19:16:53.635Z,101203.66
2022-08-17T19:19:30.555Z,101289.72
2022-08-17T19:22:29.049Z,101237.75
2022-08-17T19:25:11.554Z,101227.56
2022-08-17T19:28:20.446Z,101244.00
2022-08-17T19:30:51.287Z,101246.16
2022-08-17T19:33:22.885Z,101264.53
2022-08-17T19:35:59.340Z,101278.25
2022-08-17T19:38:47.889Z,101331.59
2022-08-17T19:41:37.465Z,101298.91
2022-08-17T19:44:27.150Z,101300.63
2022-08-17T19:47:36.167Z,101276.66
2022-08-17T19:50:24.780Z,101257.84
2022-08-17T19:53:09.775Z,101240.66
2022-08-17T19:55:51.088Z,101333.16
2022-08-17T19:58:29.616Z,101316.19
2022-08-17T20:00:56.441Z,101295.72
2022-08-17T20:03:26.987Z,101301.56
2022-08-17T20:06:12.711Z,101317.91
2022-08-17T20:08:49.092Z,101318.47
2022-08-17T20:11:25.803Z,101329.59
2022-08-17T20:14:53.655Z,101266.41
2022-08-17T20:17:31.602Z,101292.91
2022-08-17T20:20:33.413Z,101340.00
2022-08-17T20:23:51.045Z,101314.34
2022-08-17T20:26:27.124Z,101343.44
2022-08-17T20:29:14.105Z,101284.50
2022-08-17T20:31:49.573Z,101295.50
2022-08-17T20:34:33.582Z,101329.69
2022-08-17T20:37:30.477Z,101283.56
2022-08-17T20:40:20.484Z,101334.88
2022-08-17T20:42:47.364Z,101272.53
2022-08-17T20:45:27.460Z,101332.31
2022-08-17T20:48:37.042Z,101261.41
2022-08-17T20:50:57.581Z,101305.81
2022-08-17T20:53:49.538Z,101326.47
2022-08-17T20:56:46.562Z,101324.81
2022-08-17T20:59:27.497Z,101319.78
2022-08-17T21:02:12.474Z,101329.56
2022-08-17T21:05:34.739Z,101320.47
2022-08-17T21:08:13.180Z,101337.00
2022-08-17T21:10:43.867Z,101338.84
2022-08-17T21:13:16.249Z,101343.41
2022-08-17T21:15:50.412Z,101347.91
2022-08-17T21:18:52.800Z,101348.97
2022-08-17T21:21:39.742Z,101342.25
2022-08-17T21:24:23.072Z,101355.09
2022-08-17T21:27:07.389Z,101326.84
2022-08-17T21:29:40.552Z,101358.38
2022-08-17T21:32:18.477Z,101328.28
2022-08-17T21:35:11.410Z,101363.59
2022-08-17T21:37:44.266Z,101367.16
2022-08-17T21:40:10.819Z,101373.09
2022-08-17T21:43:15.844Z,101373.94
2022-08-17T21:45:43.542Z,101354.88
2022-08-17T21:48:19.836Z,101372.31
2022-08-17T21:51:15.323Z,101380.22
2022-08-17T21:53:56.159Z,101355.31
2022-08-17T21:56:35.521Z,101355.31
2022-08-17T21:59:08.448Z,101376.78
2022-08-17T22:01:42.235Z,101371.94
2022-08-17T22:04:11.774Z,101381.16
2022-08-17T22:06:40.343Z,101384.66
2022-08-17T22:09:10.078Z,101389.91
2022-08-17T22:11:56.777Z,101383.78
2022-08-17T22:14:53.243Z,101382.97
2022-08-17T22:17:48.229Z,101387.41
2022-08-17T22:20:18.367Z,101384.06
2022-08-17T22:23:12.691Z,101383.25
2022-08-17T22:25:56.995Z,101385.03
2022-08-17T22:28:37.399Z,101356.78
2022-08-17T22:31:06.331Z,101381.03
2022-08-17T22:33:33.381Z,101387.94
2022-08-17T22:36:12.858Z,101388.19
2022-08-17T22:38:41.432Z,101375.19
2022-08-17T22:41:31.358Z,101405.81
2022-08-17T22:44:27.427Z,101402.41
2022-08-17T22:46:59.235Z,101399.78
2022-08-17T22:49:34.136Z,101389.91
2022-08-17T22:53:00.542Z,101409.63
2022-08-17T22:55:48.791Z,101384.81
2022-08-17T22:58:38.177Z,101414.09
2022-08-17T23:01:28.719Z,101419.25
2022-08-17T23:04:32.618Z,101408.88
2022-08-17T23:06:59.262Z,101384.81
2022-08-17T23:09:25.845Z,101395.19
2022-08-17T23:11:58.994Z,101388.13
2022-08-17T23:14:31.666Z,101406.25
2022-08-17T23:17:01.855Z,101373.56
2022-08-17T23:19:31.418Z,101361.44
2022-08-17T23:21:59.203Z,101412.97
2022-08-17T23:24:30.044Z,101411.25
2022-08-17T23:26:58.115Z,101415.75
2022-08-17T23:29:29.225Z,101410.47
2022-08-17T23:31:59.848Z,101397.88
2022-08-17T23:34:28.009Z,101411.53
2022-08-17T23:36:55.854Z,101421.09
2022-08-17T23:39:24.759Z,101421.94
2022-08-17T23:41:56.813Z,101426.41
2022-08-17T23:44:23.753Z,101405.81
2022-08-17T23:46:51.912Z,101424.91
2022-08-17T23:49:19.235Z,101406.78
2022-08-17T23:51:47.739Z,101417.19
2022-08-17T23:54:34.597Z,101426.50
2022-08-17T23:57:01.951Z,101429.06
2022-08-17T23:59:29.262Z,101425.63
